sensor_id;sensor_type;location;lat;lon;timestamp;P1;durP1;ratioP1;P2;durP2;ratioP2
39218;SDS011;24934;52.752;6.964;2023-11-19T00:01:33;66.77;;;40.53;;
39218;SDS011;24934;52.752;6.964;2023-11-19T00:03:59;69.13;;;42.50;;
39218;SDS011;24934;52.752;6.964;2023-11-19T00:06:25;63.07;;;39.67;;
39218;SDS011;24934;52.752;6.964;2023-11-19T00:08:51;63.30;;;40.10;;
39218;SDS011;24934;52.752;6.964;2023-11-19T00:11:20;63.67;;;40.07;;
39218;SDS011;24934;52.752;6.964;2023-11-19T00:13:46;64.17;;;40.20;;
39218;SDS011;24934;52.752;6.964;2023-11-19T00:16:12;61.90;;;39.90;;
39218;SDS011;24934;52.752;6.964;2023-11-19T00:18:38;62.10;;;40.00;;
39218;SDS011;24934;52.752;6.964;2023-11-19T00:21:04;59.47;;;38.63;;
39218;SDS011;24934;52.752;6.964;2023-11-19T00:23:30;59.00;;;37.60;;
39218;SDS011;24934;52.752;6.964;2023-11-19T00:25:57;60.37;;;38.00;;
39218;SDS011;24934;52.752;6.964;2023-11-19T00:28:23;58.33;;;38.43;;
39218;SDS011;24934;52.752;6.964;2023-11-19T00:30:49;60.33;;;37.23;;
39218;SDS011;24934;52.752;6.964;2023-11-19T00:33:18;57.53;;;38.03;;
39218;SDS011;24934;52.752;6.964;2023-11-19T00:35:44;62.80;;;39.37;;
39218;SDS011;24934;52.752;6.964;2023-11-19T00:38:10;68.23;;;38.10;;
39218;SDS011;24934;52.752;6.964;2023-11-19T00:40:37;67.17;;;40.40;;
39218;SDS011;24934;52.752;6.964;2023-11-19T00:43:06;63.70;;;40.40;;
39218;SDS011;24934;52.752;6.964;2023-11-19T00:45:32;66.13;;;40.47;;
39218;SDS011;24934;52.752;6.964;2023-11-19T00:47:59;71.63;;;42.43;;
39218;SDS011;24934;52.752;6.964;2023-11-19T00:50:31;76.23;;;43.60;;
39218;SDS011;24934;52.752;6.964;2023-11-19T00:52:58;66.67;;;40.93;;
39218;SDS011;24934;52.752;6.964;2023-11-19T00:55:24;76.70;;;43.27;;
39218;SDS011;24934;52.752;6.964;2023-11-19T00:57:50;74.60;;;42.13;;
39218;SDS011;24934;52.752;6.964;2023-11-19T01:00:16;71.03;;;41.40;;
39218;SDS011;24934;52.752;6.964;2023-11-19T01:02:47;74.20;;;42.63;;
39218;SDS011;24934;52.752;6.964;2023-11-19T01:05:15;81.57;;;43.07;;
39218;SDS011;24934;52.752;6.964;2023-11-19T01:07:46;67.63;;;40.37;;
39218;SDS011;24934;52.752;6.964;2023-11-19T01:10:12;71.73;;;42.07;;
39218;SDS011;24934;52.752;6.964;2023-11-19T01:12:40;65.43;;;39.50;;
39218;SDS011;24934;52.752;6.964;2023-11-19T01:15:07;66.87;;;40.23;;
39218;SDS011;24934;52.752;6.964;2023-11-19T01:17:33;66.57;;;38.90;;
39218;SDS011;24934;52.752;6.964;2023-11-19T01:19:59;62.60;;;40.50;;
39218;SDS011;24934;52.752;6.964;2023-11-19T01:22:25;64.07;;;39.03;;
39218;SDS011;24934;52.752;6.964;2023-11-19T01:24:52;72.63;;;40.53;;
39218;SDS011;24934;52.752;6.964;2023-11-19T01:27:19;77.10;;;43.43;;
39218;SDS011;24934;52.752;6.964;2023-11-19T01:29:45;70.97;;;42.37;;
39218;SDS011;24934;52.752;6.964;2023-11-19T01:32:11;79.60;;;43.23;;
39218;SDS011;24934;52.752;6.964;2023-11-19T01:34:37;89.10;;;44.83;;
39218;SDS011;24934;52.752;6.964;2023-11-19T01:37:03;82.93;;;45.93;;
39218;SDS011;24934;52.752;6.964;2023-11-19T01:39:36;87.30;;;45.57;;
39218;SDS011;24934;52.752;6.964;2023-11-19T01:42:03;86.47;;;47.23;;
39218;SDS011;24934;52.752;6.964;2023-11-19T01:44:29;93.70;;;48.60;;
39218;SDS011;24934;52.752;6.964;2023-11-19T01:46:57;92.37;;;48.87;;
39218;SDS011;24934;52.752;6.964;2023-11-19T01:49:23;94.63;;;48.73;;
39218;SDS011;24934;52.752;6.964;2023-11-19T01:51:49;94.77;;;49.73;;
39218;SDS011;24934;52.752;6.964;2023-11-19T01:54:15;91.03;;;48.17;;
39218;SDS011;24934;52.752;6.964;2023-11-19T01:56:41;92.30;;;47.17;;
39218;SDS011;24934;52.752;6.964;2023-11-19T01:59:07;89.97;;;48.73;;
39218;SDS011;24934;52.752;6.964;2023-11-19T02:01:38;89.03;;;47.70;;
39218;SDS011;24934;52.752;6.964;2023-11-19T02:04:05;89.97;;;46.87;;
39218;SDS011;24934;52.752;6.964;2023-11-19T02:06:32;92.13;;;48.20;;
39218;SDS011;24934;52.752;6.964;2023-11-19T02:08:58;90.93;;;47.00;;
39218;SDS011;24934;52.752;6.964;2023-11-19T02:11:25;83.33;;;46.67;;
39218;SDS011;24934;52.752;6.964;2023-11-19T02:13:54;82.87;;;46.23;;
39218;SDS011;24934;52.752;6.964;2023-11-19T02:16:20;81.30;;;46.67;;
39218;SDS011;24934;52.752;6.964;2023-11-19T02:18:46;86.63;;;45.87;;
39218;SDS011;24934;52.752;6.964;2023-11-19T02:21:13;90.53;;;45.70;;
39218;SDS011;24934;52.752;6.964;2023-11-19T02:23:40;77.27;;;44.67;;
39218;SDS011;24934;52.752;6.964;2023-11-19T02:26:24;84.70;;;45.20;;
39218;SDS011;24934;52.752;6.964;2023-11-19T02:28:51;88.20;;;43.65;;
39218;SDS011;24934;52.752;6.964;2023-11-19T02:31:17;83.43;;;43.47;;
39218;SDS011;24934;52.752;6.964;2023-11-19T02:33:44;79.13;;;42.37;;
39218;SDS011;24934;52.752;6.964;2023-11-19T02:36:10;74.97;;;42.00;;
39218;SDS011;24934;52.752;6.964;2023-11-19T02:38:36;69.47;;;40.17;;
39218;SDS011;24934;52.752;6.964;2023-11-19T02:41:06;76.80;;;40.93;;
39218;SDS011;24934;52.752;6.964;2023-11-19T02:43:32;89.97;;;40.07;;
39218;SDS011;24934;52.752;6.964;2023-11-19T02:46:02;70.50;;;38.67;;
39218;SDS011;24934;52.752;6.964;2023-11-19T02:48:32;72.53;;;39.93;;
39218;SDS011;24934;52.752;6.964;2023-11-19T02:50:58;66.57;;;38.80;;
39218;SDS011;24934;52.752;6.964;2023-11-19T02:53:24;76.03;;;39.33;;
39218;SDS011;24934;52.752;6.964;2023-11-19T02:55:52;71.25;;;37.80;;
39218;SDS011;24934;52.752;6.964;2023-11-19T02:58:18;71.53;;;36.33;;
39218;SDS011;24934;52.752;6.964;2023-11-19T03:00:45;70.63;;;35.78;;
39218;SDS011;24934;52.752;6.964;2023-11-19T03:03:21;67.20;;;34.08;;
39218;SDS011;24934;52.752;6.964;2023-11-19T03:05:51;62.08;;;33.00;;
39218;SDS011;24934;52.752;6.964;2023-11-19T03:08:17;65.22;;;31.70;;
39218;SDS011;24934;52.752;6.964;2023-11-19T03:10:43;65.57;;;31.50;;
39218;SDS011;24934;52.752;6.964;2023-11-19T03:13:11;63.80;;;29.37;;
39218;SDS011;24934;52.752;6.964;2023-11-19T03:15:40;56.60;;;27.05;;
39218;SDS011;24934;52.752;6.964;2023-11-19T03:18:06;61.00;;;26.55;;
39218;SDS011;24934;52.752;6.964;2023-11-19T03:20:32;61.63;;;26.00;;
39218;SDS011;24934;52.752;6.964;2023-11-19T03:22:59;58.40;;;25.55;;
39218;SDS011;24934;52.752;6.964;2023-11-19T03:25:28;64.90;;;26.13;;
39218;SDS011;24934;52.752;6.964;2023-11-19T03:28:03;65.20;;;24.65;;
39218;SDS011;24934;52.752;6.964;2023-11-19T03:30:29;58.95;;;23.70;;
39218;SDS011;24934;52.752;6.964;2023-11-19T03:32:56;64.53;;;24.10;;
39218;SDS011;24934;52.752;6.964;2023-11-19T03:35:22;65.28;;;23.77;;
39218;SDS011;24934;52.752;6.964;2023-11-19T03:37:48;57.40;;;22.83;;
39218;SDS011;24934;52.752;6.964;2023-11-19T03:40:15;60.47;;;22.30;;
39218;SDS011;24934;52.752;6.964;2023-11-19T03:42:41;58.58;;;22.73;;
39218;SDS011;24934;52.752;6.964;2023-11-19T03:45:07;63.17;;;23.98;;
39218;SDS011;24934;52.752;6.964;2023-11-19T03:47:34;59.08;;;22.00;;
39218;SDS011;24934;52.752;6.964;2023-11-19T03:50:00;59.97;;;22.90;;
39218;SDS011;24934;52.752;6.964;2023-11-19T03:52:26;69.63;;;22.63;;
39218;SDS011;24934;52.752;6.964;2023-11-19T03:54:52;59.65;;;22.08;;
39218;SDS011;24934;52.752;6.964;2023-11-19T03:57:20;63.35;;;21.48;;
39218;SDS011;24934;52.752;6.964;2023-11-19T03:59:46;70.00;;;22.05;;
39218;SDS011;24934;52.752;6.964;2023-11-19T04:02:12;60.28;;;21.17;;
39218;SDS011;24934;52.752;6.964;2023-11-19T04:04:38;55.38;;;20.63;;
39218;SDS011;24934;52.752;6.964;2023-11-19T04:07:04;64.95;;;20.83;;
39218;SDS011;24934;52.752;6.964;2023-11-19T04:09:30;68.22;;;21.00;;
39218;SDS011;24934;52.752;6.964;2023-11-19T04:12:00;59.80;;;20.10;;
39218;SDS011;24934;52.752;6.964;2023-11-19T04:14:26;58.83;;;21.40;;
39218;SDS011;24934;52.752;6.964;2023-11-19T04:16:52;76.70;;;21.20;;
39218;SDS011;24934;52.752;6.964;2023-11-19T04:19:19;65.90;;;21.37;;
39218;SDS011;24934;52.752;6.964;2023-11-19T04:21:45;61.78;;;21.08;;
39218;SDS011;24934;52.752;6.964;2023-11-19T04:24:11;65.93;;;21.97;;
39218;SDS011;24934;52.752;6.964;2023-11-19T04:26:44;64.10;;;20.98;;
39218;SDS011;24934;52.752;6.964;2023-11-19T04:29:13;64.90;;;20.40;;
39218;SDS011;24934;52.752;6.964;2023-11-19T04:31:40;72.30;;;20.70;;
39218;SDS011;24934;52.752;6.964;2023-11-19T04:34:06;58.87;;;20.23;;
39218;SDS011;24934;52.752;6.964;2023-11-19T04:36:32;64.93;;;20.60;;
39218;SDS011;24934;52.752;6.964;2023-11-19T04:38:59;63.60;;;20.67;;
39218;SDS011;24934;52.752;6.964;2023-11-19T04:41:25;59.75;;;19.40;;
39218;SDS011;24934;52.752;6.964;2023-11-19T04:43:53;57.80;;;19.50;;
39218;SDS011;24934;52.752;6.964;2023-11-19T04:46:19;68.83;;;20.80;;
39218;SDS011;24934;52.752;6.964;2023-11-19T04:48:45;70.38;;;21.60;;
39218;SDS011;24934;52.752;6.964;2023-11-19T04:51:11;65.63;;;19.30;;
39218;SDS011;24934;52.752;6.964;2023-11-19T04:53:37;64.35;;;20.40;;
39218;SDS011;24934;52.752;6.964;2023-11-19T04:56:09;63.20;;;19.47;;
39218;SDS011;24934;52.752;6.964;2023-11-19T04:58:36;67.90;;;20.50;;
39218;SDS011;24934;52.752;6.964;2023-11-19T05:01:02;71.85;;;18.83;;
39218;SDS011;24934;52.752;6.964;2023-11-19T05:03:28;63.27;;;18.93;;
39218;SDS011;24934;52.752;6.964;2023-11-19T05:05:54;65.17;;;18.63;;
39218;SDS011;24934;52.752;6.964;2023-11-19T05:08:21;59.58;;;19.02;;
39218;SDS011;24934;52.752;6.964;2023-11-19T05:10:47;68.32;;;19.85;;
39218;SDS011;24934;52.752;6.964;2023-11-19T05:13:13;70.37;;;18.97;;
39218;SDS011;24934;52.752;6.964;2023-11-19T05:15:40;57.60;;;19.17;;
39218;SDS011;24934;52.752;6.964;2023-11-19T05:18:06;61.43;;;17.90;;
39218;SDS011;24934;52.752;6.964;2023-11-19T05:20:32;67.27;;;18.73;;
39218;SDS011;24934;52.752;6.964;2023-11-19T05:22:58;66.40;;;19.20;;
39218;SDS011;24934;52.752;6.964;2023-11-19T05:25:25;68.80;;;19.30;;
39218;SDS011;24934;52.752;6.964;2023-11-19T05:27:51;58.03;;;17.90;;
39218;SDS011;24934;52.752;6.964;2023-11-19T05:30:17;61.90;;;19.00;;
39218;SDS011;24934;52.752;6.964;2023-11-19T05:32:44;57.33;;;18.97;;
39218;SDS011;24934;52.752;6.964;2023-11-19T05:35:12;56.33;;;18.50;;
39218;SDS011;24934;52.752;6.964;2023-11-19T05:37:38;61.40;;;18.63;;
39218;SDS011;24934;52.752;6.964;2023-11-19T05:40:05;66.07;;;19.20;;
39218;SDS011;24934;52.752;6.964;2023-11-19T05:42:39;66.33;;;19.53;;
39218;SDS011;24934;52.752;6.964;2023-11-19T05:45:05;64.33;;;18.60;;
39218;SDS011;24934;52.752;6.964;2023-11-19T05:47:32;67.40;;;18.80;;
39218;SDS011;24934;52.752;6.964;2023-11-19T05:49:58;66.63;;;18.47;;
39218;SDS011;24934;52.752;6.964;2023-11-19T05:52:24;57.15;;;18.10;;
39218;SDS011;24934;52.752;6.964;2023-11-19T05:54:50;55.47;;;18.00;;
39218;SDS011;24934;52.752;6.964;2023-11-19T05:57:17;58.50;;;17.20;;
39218;SDS011;24934;52.752;6.964;2023-11-19T05:59:48;64.55;;;18.13;;
39218;SDS011;24934;52.752;6.964;2023-11-19T06:02:15;60.97;;;17.43;;
39218;SDS011;24934;52.752;6.964;2023-11-19T06:04:41;63.00;;;17.40;;
39218;SDS011;24934;52.752;6.964;2023-11-19T06:07:09;58.77;;;17.27;;
39218;SDS011;24934;52.752;6.964;2023-11-19T06:09:37;67.27;;;16.80;;
39218;SDS011;24934;52.752;6.964;2023-11-19T06:12:03;59.40;;;17.60;;
39218;SDS011;24934;52.752;6.964;2023-11-19T06:14:31;53.47;;;16.47;;
39218;SDS011;24934;52.752;6.964;2023-11-19T06:16:57;65.70;;;17.63;;
39218;SDS011;24934;52.752;6.964;2023-11-19T06:19:23;52.53;;;17.00;;
39218;SDS011;24934;52.752;6.964;2023-11-19T06:21:50;65.70;;;16.23;;
39218;SDS011;24934;52.752;6.964;2023-11-19T06:24:16;59.63;;;16.60;;
39218;SDS011;24934;52.752;6.964;2023-11-19T06:26:42;55.63;;;17.13;;
39218;SDS011;24934;52.752;6.964;2023-11-19T06:29:08;58.70;;;16.20;;
39218;SDS011;24934;52.752;6.964;2023-11-19T06:31:34;59.73;;;17.27;;
39218;SDS011;24934;52.752;6.964;2023-11-19T06:34:00;58.50;;;15.97;;
39218;SDS011;24934;52.752;6.964;2023-11-19T06:36:26;56.80;;;15.53;;
39218;SDS011;24934;52.752;6.964;2023-11-19T06:38:52;58.70;;;15.40;;
39218;SDS011;24934;52.752;6.964;2023-11-19T06:41:18;56.60;;;16.43;;
39218;SDS011;24934;52.752;6.964;2023-11-19T06:43:44;62.07;;;16.67;;
39218;SDS011;24934;52.752;6.964;2023-11-19T06:46:16;64.60;;;17.53;;
39218;SDS011;24934;52.752;6.964;2023-11-19T06:48:43;55.60;;;16.33;;
39218;SDS011;24934;52.752;6.964;2023-11-19T06:51:09;63.43;;;17.80;;
39218;SDS011;24934;52.752;6.964;2023-11-19T06:53:35;57.60;;;16.03;;
39218;SDS011;24934;52.752;6.964;2023-11-19T06:56:01;53.23;;;16.30;;
39218;SDS011;24934;52.752;6.964;2023-11-19T06:58:36;60.47;;;17.63;;
39218;SDS011;24934;52.752;6.964;2023-11-19T07:01:02;59.33;;;16.83;;
39218;SDS011;24934;52.752;6.964;2023-11-19T07:03:29;57.83;;;17.37;;
39218;SDS011;24934;52.752;6.964;2023-11-19T07:05:55;64.63;;;17.77;;
39218;SDS011;24934;52.752;6.964;2023-11-19T07:08:21;64.97;;;18.47;;
39218;SDS011;24934;52.752;6.964;2023-11-19T07:10:47;57.87;;;19.07;;
39218;SDS011;24934;52.752;6.964;2023-11-19T07:13:14;56.50;;;17.67;;
39218;SDS011;24934;52.752;6.964;2023-11-19T07:15:40;67.43;;;19.00;;
39218;SDS011;24934;52.752;6.964;2023-11-19T07:18:06;63.83;;;18.87;;
39218;SDS011;24934;52.752;6.964;2023-11-19T07:20:32;59.07;;;19.17;;
39218;SDS011;24934;52.752;6.964;2023-11-19T07:22:58;64.07;;;19.00;;
39218;SDS011;24934;52.752;6.964;2023-11-19T07:25:24;62.13;;;19.03;;
39218;SDS011;24934;52.752;6.964;2023-11-19T07:27:51;64.13;;;20.13;;
39218;SDS011;24934;52.752;6.964;2023-11-19T07:30:17;64.93;;;20.20;;
39218;SDS011;24934;52.752;6.964;2023-11-19T07:32:43;58.90;;;18.77;;
39218;SDS011;24934;52.752;6.964;2023-11-19T07:35:12;59.60;;;19.17;;
39218;SDS011;24934;52.752;6.964;2023-11-19T07:37:41;59.03;;;18.87;;
39218;SDS011;24934;52.752;6.964;2023-11-19T07:40:07;62.10;;;18.87;;
39218;SDS011;24934;52.752;6.964;2023-11-19T07:42:33;55.30;;;18.67;;
39218;SDS011;24934;52.752;6.964;2023-11-19T07:45:00;48.67;;;18.27;;
39218;SDS011;24934;52.752;6.964;2023-11-19T07:47:26;63.27;;;19.13;;
39218;SDS011;24934;52.752;6.964;2023-11-19T07:49:55;61.03;;;18.67;;
39218;SDS011;24934;52.752;6.964;2023-11-19T07:52:21;60.50;;;18.27;;
39218;SDS011;24934;52.752;6.964;2023-11-19T07:54:48;58.33;;;18.37;;
39218;SDS011;24934;52.752;6.964;2023-11-19T07:57:15;56.97;;;17.87;;
39218;SDS011;24934;52.752;6.964;2023-11-19T07:59:41;51.87;;;18.53;;
39218;SDS011;24934;52.752;6.964;2023-11-19T08:02:07;62.87;;;18.53;;
39218;SDS011;24934;52.752;6.964;2023-11-19T08:04:34;67.27;;;19.93;;
39218;SDS011;24934;52.752;6.964;2023-11-19T08:07:00;57.50;;;18.53;;
39218;SDS011;24934;52.752;6.964;2023-11-19T08:09:27;60.97;;;17.23;;
39218;SDS011;24934;52.752;6.964;2023-11-19T08:11:53;54.90;;;17.80;;
39218;SDS011;24934;52.752;6.964;2023-11-19T08:14:21;57.07;;;17.57;;
39218;SDS011;24934;52.752;6.964;2023-11-19T08:16:47;58.40;;;19.40;;
39218;SDS011;24934;52.752;6.964;2023-11-19T08:19:13;52.90;;;18.13;;
39218;SDS011;24934;52.752;6.964;2023-11-19T08:21:41;54.77;;;17.73;;
39218;SDS011;24934;52.752;6.964;2023-11-19T08:24:07;55.73;;;18.37;;
39218;SDS011;24934;52.752;6.964;2023-11-19T08:26:36;61.30;;;19.30;;
39218;SDS011;24934;52.752;6.964;2023-11-19T08:29:04;56.03;;;18.77;;
39218;SDS011;24934;52.752;6.964;2023-11-19T08:31:30;54.00;;;18.70;;
39218;SDS011;24934;52.752;6.964;2023-11-19T08:33:56;58.07;;;18.63;;
39218;SDS011;24934;52.752;6.964;2023-11-19T08:36:22;58.60;;;19.53;;
39218;SDS011;24934;52.752;6.964;2023-11-19T08:38:50;60.90;;;19.63;;
39218;SDS011;24934;52.752;6.964;2023-11-19T08:41:20;55.03;;;19.73;;
39218;SDS011;24934;52.752;6.964;2023-11-19T08:43:46;61.90;;;21.70;;
39218;SDS011;24934;52.752;6.964;2023-11-19T08:46:13;55.83;;;20.13;;
39218;SDS011;24934;52.752;6.964;2023-11-19T08:48:39;58.90;;;20.03;;
39218;SDS011;24934;52.752;6.964;2023-11-19T08:51:05;51.43;;;19.50;;
39218;SDS011;24934;52.752;6.964;2023-11-19T08:53:31;53.40;;;19.67;;
39218;SDS011;24934;52.752;6.964;2023-11-19T08:55:58;61.80;;;19.03;;
39218;SDS011;24934;52.752;6.964;2023-11-19T08:58:25;55.87;;;19.57;;
39218;SDS011;24934;52.752;6.964;2023-11-19T09:00:54;62.37;;;21.67;;
39218;SDS011;24934;52.752;6.964;2023-11-19T09:03:20;63.77;;;22.87;;
39218;SDS011;24934;52.752;6.964;2023-11-19T09:05:46;60.83;;;23.33;;
39218;SDS011;24934;52.752;6.964;2023-11-19T09:08:12;66.97;;;21.57;;
39218;SDS011;24934;52.752;6.964;2023-11-19T09:10:41;57.53;;;19.47;;
39218;SDS011;24934;52.752;6.964;2023-11-19T09:13:07;63.40;;;20.23;;
39218;SDS011;24934;52.752;6.964;2023-11-19T09:15:34;69.00;;;20.30;;
39218;SDS011;24934;52.752;6.964;2023-11-19T09:18:00;72.27;;;21.40;;
39218;SDS011;24934;52.752;6.964;2023-11-19T09:20:26;68.87;;;20.20;;
39218;SDS011;24934;52.752;6.964;2023-11-19T09:22:52;61.97;;;21.03;;
39218;SDS011;24934;52.752;6.964;2023-11-19T09:25:19;66.63;;;21.60;;
39218;SDS011;24934;52.752;6.964;2023-11-19T09:27:45;68.00;;;21.73;;
39218;SDS011;24934;52.752;6.964;2023-11-19T09:30:11;66.83;;;21.87;;
39218;SDS011;24934;52.752;6.964;2023-11-19T09:32:37;64.20;;;21.87;;
39218;SDS011;24934;52.752;6.964;2023-11-19T09:35:05;66.30;;;22.23;;
39218;SDS011;24934;52.752;6.964;2023-11-19T09:37:32;75.20;;;22.20;;
39218;SDS011;24934;52.752;6.964;2023-11-19T09:39:58;59.33;;;21.40;;
39218;SDS011;24934;52.752;6.964;2023-11-19T09:42:24;67.90;;;23.13;;
39218;SDS011;24934;52.752;6.964;2023-11-19T09:44:50;72.20;;;21.97;;
39218;SDS011;24934;52.752;6.964;2023-11-19T09:47:17;64.93;;;21.80;;
39218;SDS011;24934;52.752;6.964;2023-11-19T09:49:44;57.77;;;21.47;;
39218;SDS011;24934;52.752;6.964;2023-11-19T09:52:10;59.97;;;21.07;;
39218;SDS011;24934;52.752;6.964;2023-11-19T09:54:36;65.17;;;22.10;;
39218;SDS011;24934;52.752;6.964;2023-11-19T09:57:02;65.45;;;22.30;;
39218;SDS011;24934;52.752;6.964;2023-11-19T09:59:30;65.47;;;22.17;;
39218;SDS011;24934;52.752;6.964;2023-11-19T10:01:56;61.90;;;21.45;;
39218;SDS011;24934;52.752;6.964;2023-11-19T10:04:23;63.80;;;21.17;;
39218;SDS011;24934;52.752;6.964;2023-11-19T10:06:49;52.30;;;21.70;;
39218;SDS011;24934;52.752;6.964;2023-11-19T10:09:17;51.70;;;21.70;;
39218;SDS011;24934;52.752;6.964;2023-11-19T10:11:44;60.58;;;22.60;;
39218;SDS011;24934;52.752;6.964;2023-11-19T10:14:10;60.10;;;22.48;;
39218;SDS011;24934;52.752;6.964;2023-11-19T10:16:36;57.88;;;22.45;;
39218;SDS011;24934;52.752;6.964;2023-11-19T10:19:03;53.90;;;22.58;;
39218;SDS011;24934;52.752;6.964;2023-11-19T10:21:32;62.50;;;23.85;;
39218;SDS011;24934;52.752;6.964;2023-11-19T10:23:58;52.17;;;22.67;;
39218;SDS011;24934;52.752;6.964;2023-11-19T10:26:27;59.92;;;22.98;;
39218;SDS011;24934;52.752;6.964;2023-11-19T10:28:53;62.20;;;22.15;;
39218;SDS011;24934;52.752;6.964;2023-11-19T10:31:21;54.63;;;21.85;;
39218;SDS011;24934;52.752;6.964;2023-11-19T10:33:51;53.07;;;21.90;;
39218;SDS011;24934;52.752;6.964;2023-11-19T10:36:17;54.80;;;21.87;;
39218;SDS011;24934;52.752;6.964;2023-11-19T10:38:54;54.70;;;22.30;;
39218;SDS011;24934;52.752;6.964;2023-11-19T10:41:30;69.30;;;23.80;;
39218;SDS011;24934;52.752;6.964;2023-11-19T10:44:00;60.30;;;23.40;;
39218;SDS011;24934;52.752;6.964;2023-11-19T10:46:39;60.27;;;23.57;;
39218;SDS011;24934;52.752;6.964;2023-11-19T10:49:05;66.23;;;23.30;;
39218;SDS011;24934;52.752;6.964;2023-11-19T10:51:31;60.97;;;21.87;;
39218;SDS011;24934;52.752;6.964;2023-11-19T10:54:02;51.60;;;22.20;;
39218;SDS011;24934;52.752;6.964;2023-11-19T10:56:33;65.60;;;22.60;;
39218;SDS011;24934;52.752;6.964;2023-11-19T10:58:59;58.10;;;22.20;;
39218;SDS011;24934;52.752;6.964;2023-11-19T11:01:44;57.03;;;22.37;;
39218;SDS011;24934;52.752;6.964;2023-11-19T11:04:13;54.23;;;21.73;;
39218;SDS011;24934;52.752;6.964;2023-11-19T11:06:40;56.03;;;22.67;;
39218;SDS011;24934;52.752;6.964;2023-11-19T11:09:07;63.47;;;22.10;;
39218;SDS011;24934;52.752;6.964;2023-11-19T11:11:37;55.25;;;21.33;;
39218;SDS011;24934;52.752;6.964;2023-11-19T11:14:03;64.13;;;21.85;;
39218;SDS011;24934;52.752;6.964;2023-11-19T11:16:30;65.35;;;21.52;;
39218;SDS011;24934;52.752;6.964;2023-11-19T11:18:57;60.72;;;21.73;;
39218;SDS011;24934;52.752;6.964;2023-11-19T11:21:24;61.50;;;21.33;;
39218;SDS011;24934;52.752;6.964;2023-11-19T11:29:00;61.30;;;22.05;;
39218;SDS011;24934;52.752;6.964;2023-11-19T11:34:19;62.03;;;22.27;;
39218;SDS011;24934;52.752;6.964;2023-11-19T11:39:16;52.60;;;21.65;;
39218;SDS011;24934;52.752;6.964;2023-11-19T11:41:47;47.47;;;21.80;;
39218;SDS011;24934;52.752;6.964;2023-11-19T11:44:13;60.88;;;23.23;;
39218;SDS011;24934;52.752;6.964;2023-11-19T11:49:05;54.30;;;21.70;;
39218;SDS011;24934;52.752;6.964;2023-11-19T11:57:31;46.97;;;20.23;;
39218;SDS011;24934;52.752;6.964;2023-11-19T11:59:53;58.03;;;19.83;;
39218;SDS011;24934;52.752;6.964;2023-11-19T12:02:21;52.55;;;20.73;;
39218;SDS011;24934;52.752;6.964;2023-11-19T12:04:48;50.15;;;20.67;;
39218;SDS011;24934;52.752;6.964;2023-11-19T12:07:21;49.50;;;20.52;;
39218;SDS011;24934;52.752;6.964;2023-11-19T12:09:52;54.55;;;20.90;;
39218;SDS011;24934;52.752;6.964;2023-11-19T12:12:26;53.63;;;22.08;;
39218;SDS011;24934;52.752;6.964;2023-11-19T12:17:37;39.58;;;19.50;;
39218;SDS011;24934;52.752;6.964;2023-11-19T12:20:05;45.03;;;19.20;;
39218;SDS011;24934;52.752;6.964;2023-11-19T12:22:35;52.80;;;19.13;;
39218;SDS011;24934;52.752;6.964;2023-11-19T12:25:01;54.42;;;18.70;;
39218;SDS011;24934;52.752;6.964;2023-11-19T12:27:28;56.03;;;19.30;;
39218;SDS011;24934;52.752;6.964;2023-11-19T12:29:54;52.05;;;19.88;;
39218;SDS011;24934;52.752;6.964;2023-11-19T12:32:22;57.25;;;20.13;;
39218;SDS011;24934;52.752;6.964;2023-11-19T12:34:48;63.63;;;20.17;;
39218;SDS011;24934;52.752;6.964;2023-11-19T12:37:14;61.28;;;20.25;;
39218;SDS011;24934;52.752;6.964;2023-11-19T12:39:40;48.85;;;19.20;;
39218;SDS011;24934;52.752;6.964;2023-11-19T12:42:06;61.30;;;19.55;;
39218;SDS011;24934;52.752;6.964;2023-11-19T12:44:32;54.42;;;19.83;;
39218;SDS011;24934;52.752;6.964;2023-11-19T12:47:03;50.80;;;19.85;;
39218;SDS011;24934;52.752;6.964;2023-11-19T12:49:29;58.95;;;20.33;;
39218;SDS011;24934;52.752;6.964;2023-11-19T12:51:55;64.22;;;20.83;;
39218;SDS011;24934;52.752;6.964;2023-11-19T12:57:17;60.75;;;20.15;;
39218;SDS011;24934;52.752;6.964;2023-11-19T12:59:55;56.58;;;20.02;;
39218;SDS011;24934;52.752;6.964;2023-11-19T13:02:21;53.50;;;20.40;;
39218;SDS011;24934;52.752;6.964;2023-11-19T13:04:48;63.03;;;20.77;;
39218;SDS011;24934;52.752;6.964;2023-11-19T13:07:20;57.92;;;20.67;;
39218;SDS011;24934;52.752;6.964;2023-11-19T13:09:45;56.17;;;20.33;;
39218;SDS011;24934;52.752;6.964;2023-11-19T13:12:12;56.95;;;20.08;;
39218;SDS011;24934;52.752;6.964;2023-11-19T13:14:39;46.25;;;19.90;;
39218;SDS011;24934;52.752;6.964;2023-11-19T13:17:12;48.67;;;20.42;;
39218;SDS011;24934;52.752;6.964;2023-11-19T13:19:39;53.95;;;21.80;;
39218;SDS011;24934;52.752;6.964;2023-11-19T13:22:08;52.13;;;21.40;;
39218;SDS011;24934;52.752;6.964;2023-11-19T13:24:34;57.08;;;20.88;;
39218;SDS011;24934;52.752;6.964;2023-11-19T13:27:00;48.15;;;20.60;;
39218;SDS011;24934;52.752;6.964;2023-11-19T13:29:26;48.63;;;21.33;;
39218;SDS011;24934;52.752;6.964;2023-11-19T13:31:52;53.35;;;21.58;;
39218;SDS011;24934;52.752;6.964;2023-11-19T13:34:18;55.97;;;21.23;;
39218;SDS011;24934;52.752;6.964;2023-11-19T13:36:44;53.20;;;21.02;;
39218;SDS011;24934;52.752;6.964;2023-11-19T13:39:11;52.78;;;21.85;;
39218;SDS011;24934;52.752;6.964;2023-11-19T13:41:37;61.97;;;20.58;;
39218;SDS011;24934;52.752;6.964;2023-11-19T13:44:03;51.58;;;19.90;;
39218;SDS011;24934;52.752;6.964;2023-11-19T13:46:29;41.88;;;18.65;;
39218;SDS011;24934;52.752;6.964;2023-11-19T13:48:55;48.45;;;19.08;;
39218;SDS011;24934;52.752;6.964;2023-11-19T13:51:21;60.20;;;19.90;;
39218;SDS011;24934;52.752;6.964;2023-11-19T13:53:47;54.10;;;21.42;;
39218;SDS011;24934;52.752;6.964;2023-11-19T13:56:13;53.67;;;19.17;;
39218;SDS011;24934;52.752;6.964;2023-11-19T13:58:39;46.58;;;19.40;;
39218;SDS011;24934;52.752;6.964;2023-11-19T14:01:05;49.43;;;20.53;;
39218;SDS011;24934;52.752;6.964;2023-11-19T14:03:32;56.65;;;19.42;;
39218;SDS011;24934;52.752;6.964;2023-11-19T14:05:58;54.25;;;20.10;;
39218;SDS011;24934;52.752;6.964;2023-11-19T14:08:28;53.23;;;18.77;;
39218;SDS011;24934;52.752;6.964;2023-11-19T14:10:54;58.47;;;18.73;;
39218;SDS011;24934;52.752;6.964;2023-11-19T14:13:21;46.60;;;18.77;;
39218;SDS011;24934;52.752;6.964;2023-11-19T14:15:48;51.07;;;18.87;;
39218;SDS011;24934;52.752;6.964;2023-11-19T14:18:14;43.17;;;17.40;;
39218;SDS011;24934;52.752;6.964;2023-11-19T14:20:40;54.37;;;19.47;;
39218;SDS011;24934;52.752;6.964;2023-11-19T14:23:09;51.70;;;18.87;;
39218;SDS011;24934;52.752;6.964;2023-11-19T14:25:35;38.60;;;17.87;;
39218;SDS011;24934;52.752;6.964;2023-11-19T14:28:01;44.10;;;18.50;;
39218;SDS011;24934;52.752;6.964;2023-11-19T14:30:27;50.63;;;18.47;;
39218;SDS011;24934;52.752;6.964;2023-11-19T14:32:53;53.30;;;18.63;;
39218;SDS011;24934;52.752;6.964;2023-11-19T14:35:19;49.90;;;18.27;;
39218;SDS011;24934;52.752;6.964;2023-11-19T14:37:45;51.63;;;19.35;;
39218;SDS011;24934;52.752;6.964;2023-11-19T14:40:12;61.53;;;20.77;;
39218;SDS011;24934;52.752;6.964;2023-11-19T14:42:38;47.13;;;18.52;;
39218;SDS011;24934;52.752;6.964;2023-11-19T14:45:04;51.80;;;18.98;;